Vollmers Atmospheric Data: 07/12/2018 Summary  Detailed Graphs  Station List

  Temperature     Wind Precipitation Visibility
Timestamp Air Wet
Bulb
Dew-
point
24-hr
Max
24-hr
Min
Relative
Humidity
Atmospheric
Pressure
Avg
Speed
Avg
Dir
Spot
Speed
Spot
Dir
Max
Speed
Max
Dir
  Rate Situation Start End 1 hr 3 hr 6 hr 12 hr 24 hr   Situation
Date Time °F °F °F °F °F % in Hg mph ° mph ° mph ° Y/N in/hr text Date Time Date Time in in in in in mi text
07/12/2018 12:13 AM 72.50 56.84 44.06 101.48 63.68 35.0 Not Reported 2.01 W 4.70 W 3.58 W No 0.000 No Precipitation 05/26/2018 06:15 AM 05/26/2018 06:20 AM 0.000 0.000 0.000 0.000 0.000 Not Reported Not Reported
07/12/2018 12:28 AM 70.88 55.76 43.34 101.48 63.68 36.0 Not Reported 2.68 W 1.79 NW 6.04 W No 0.000 No Precipitation 05/26/2018 06:15 AM 05/26/2018 06:20 AM 0.000 0.000 0.000 0.000 0.000 Not Reported Not Reported
07/12/2018 12:43 AM 70.52 55.94 43.70 101.48 63.68 37.0 Not Reported 2.24 W 1.79 W 3.58 W No 0.000 No Precipitation 05/26/2018 06:15 AM 05/26/2018 06:20 AM 0.000 0.000 0.000 0.000 0.000 Not Reported Not Reported
07/12/2018 12:58 AM 69.80 55.40 43.52 101.48 63.68 38.0 Not Reported 1.57 NW 2.01 W 2.68 W No 0.000 No Precipitation 05/26/2018 06:15 AM 05/26/2018 06:20 AM 0.000 0.000 0.000 0.000 0.000 Not Reported Not Reported
07/12/2018 01:13 AM 69.98 55.76 43.70 101.48 63.68 38.0 Not Reported 2.91 W 3.58 W 3.58 SW No 0.000 No Precipitation 05/26/2018 06:15 AM 05/26/2018 06:20 AM 0.000 0.000 0.000 0.000 0.000 Not Reported Not Reported
07/12/2018 01:28 AM 68.54 54.86 43.52 101.48 63.68 40.0 Not Reported 2.46 NW 3.13 NW 4.47 W No 0.000 No Precipitation 05/26/2018 06:15 AM 05/26/2018 06:20 AM 0.000 0.000 0.000 0.000 0.000 Not Reported Not Reported
07/12/2018 01:43 AM 68.54 55.22 44.06 101.48 63.68 41.0 Not Reported 2.24 W 3.13 W 3.80 W No 0.000 No Precipitation 05/26/2018 06:15 AM 05/26/2018 06:20 AM 0.000 0.000 0.000 0.000 0.000 Not Reported Not Reported
07/12/2018 01:58 AM 68.18 54.86 43.70 101.48 63.68 41.0 Not Reported 2.24 W 2.68 W 5.59 W No 0.000 No Precipitation 05/26/2018 06:15 AM 05/26/2018 06:20 AM 0.000 0.000 0.000 0.000 0.000 Not Reported Not Reported
07/12/2018 02:13 AM 67.10 54.32 43.34 101.48 63.68 42.0 Not Reported 2.01 W 2.46 W 4.03 NW No 0.000 No Precipitation 05/26/2018 06:15 AM 05/26/2018 06:20 AM 0.000 0.000 0.000 0.000 0.000 Not Reported Not Reported
07/12/2018 02:28 AM 67.28 54.32 43.34 101.48 63.68 41.0 Not Reported 1.57 W 1.57 W 3.58 W No 0.000 No Precipitation 05/26/2018 06:15 AM 05/26/2018 06:20 AM 0.000 0.000 0.000 0.000 0.000 Not Reported Not Reported
07/12/2018 02:43 AM 66.56 54.14 43.70 101.48 63.68 43.0 Not Reported 4.70 W 3.80 W 4.92 W No 0.000 No Precipitation 05/26/2018 06:15 AM 05/26/2018 06:20 AM 0.000 0.000 0.000 0.000 0.000 Not Reported Not Reported
07/12/2018 02:58 AM 66.56 53.96 43.16 101.48 63.68 42.0 Not Reported 2.24 W 2.01 W 5.82 SW No 0.000 No Precipitation 05/26/2018 06:15 AM 05/26/2018 06:20 AM 0.000 0.000 0.000 0.000 0.000 Not Reported Not Reported
07/12/2018 03:13 AM 65.66 53.78 43.70 101.48 63.68 45.0 Not Reported 4.47 W 3.36 SW 5.14 SW No 0.000 No Precipitation 05/26/2018 06:15 AM 05/26/2018 06:20 AM 0.000 0.000 0.000 0.000 0.000 Not Reported Not Reported
07/12/2018 03:28 AM 65.48 53.60 43.34 101.48 63.68 44.0 Not Reported 3.36 W 4.03 W 4.70 W No 0.000 No Precipitation 05/26/2018 06:15 AM 05/26/2018 06:20 AM 0.000 0.000 0.000 0.000 0.000 Not Reported Not Reported
07/12/2018 03:43 AM 64.76 53.42 43.70 101.48 63.68 46.0 Not Reported 3.80 W 4.47 SW 4.25 SW No 0.000 No Precipitation 05/26/2018 06:15 AM 05/26/2018 06:20 AM 0.000 0.000 0.000 0.000 0.000 Not Reported Not Reported
07/12/2018 03:58 AM 63.50 53.06 43.88 101.48 63.50 48.0 Not Reported 2.68 NW 4.70 NW 6.49 W No 0.000 No Precipitation 05/26/2018 06:15 AM 05/26/2018 06:20 AM 0.000 0.000 0.000 0.000 0.000 Not Reported Not Reported
07/12/2018 04:13 AM 64.76 53.24 43.34 101.48 63.32 45.0 Not Reported 2.46 NW 2.24 W 7.38 W No 0.000 No Precipitation 05/26/2018 06:15 AM 05/26/2018 06:20 AM 0.000 0.000 0.000 0.000 0.000 Not Reported Not Reported
07/12/2018 04:28 AM 63.50 52.70 43.34 101.48 63.32 47.0 Not Reported 3.80 W 4.92 W 3.13 W No 0.000 No Precipitation 05/26/2018 06:15 AM 05/26/2018 06:20 AM 0.000 0.000 0.000 0.000 0.000 Not Reported Not Reported
07/12/2018 04:43 AM 64.40 53.06 43.16 101.48 63.14 45.0 Not Reported 4.92 W 5.59 W 6.04 W No 0.000 No Precipitation 05/26/2018 06:15 AM 05/26/2018 06:20 AM 0.000 0.000 0.000 0.000 0.000 Not Reported Not Reported
07/12/2018 04:58 AM 62.60 52.70 44.06 101.48 62.60 50.0 Not Reported 3.13 NW 3.36 W 6.26 SW No 0.000 No Precipitation 05/26/2018 06:15 AM 05/26/2018 06:20 AM 0.000 0.000 0.000 0.000 0.000 Not Reported Not Reported
07/12/2018 05:13 AM 62.60 52.34 43.52 101.48 62.42 49.0 Not Reported 3.13 W 2.91 W 5.82 W No 0.000 No Precipitation 05/26/2018 06:15 AM 05/26/2018 06:20 AM 0.000 0.000 0.000 0.000 0.000 Not Reported Not Reported
07/12/2018 05:28 AM 63.68 52.70 42.98 101.48 61.52 46.0 Not Reported 6.71 W 7.38 W 4.47 W No 0.000 No Precipitation 05/26/2018 06:15 AM 05/26/2018 06:20 AM 0.000 0.000 0.000 0.000 0.000 Not Reported Not Reported
07/12/2018 05:43 AM 64.76 53.24 43.34 101.48 61.52 45.0 Not Reported 4.70 W 2.01 NW 10.51 W No 0.000 No Precipitation 05/26/2018 06:15 AM 05/26/2018 06:20 AM 0.000 0.000 0.000 0.000 0.000 Not Reported Not Reported
07/12/2018 05:58 AM 62.96 52.70 43.52 101.48 61.52 48.0 Not Reported 3.80 NW 4.03 NW 6.04 W No 0.000 No Precipitation 05/26/2018 06:15 AM 05/26/2018 06:20 AM 0.000 0.000 0.000 0.000 0.000 Not Reported Not Reported
07/12/2018 06:13 AM 63.86 53.06 43.70 101.48 61.52 47.0 Not Reported 6.04 W 6.04 SW 5.82 W No 0.000 No Precipitation 05/26/2018 06:15 AM 05/26/2018 06:20 AM 0.000 0.000 0.000 0.000 0.000 Not Reported Not Reported
07/12/2018 06:28 AM 62.42 52.52 43.70 101.48 61.52 50.0 Not Reported 4.03 W 3.58 SW 6.49 W No 0.000 No Precipitation 05/26/2018 06:15 AM 05/26/2018 06:20 AM 0.000 0.000 0.000 0.000 0.000 Not Reported Not Reported
07/12/2018 06:43 AM 61.88 52.16 43.70 101.48 61.52 51.0 Not Reported 2.68 W 3.58 W 6.04 W No 0.000 No Precipitation 05/26/2018 06:15 AM 05/26/2018 06:20 AM 0.000 0.000 0.000 0.000 0.000 Not Reported Not Reported
07/12/2018 06:58 AM 61.70 52.16 43.70 101.48 61.52 51.0 Not Reported 3.80 W 3.13 W 7.38 SW No 0.000 No Precipitation 05/26/2018 06:15 AM 05/26/2018 06:20 AM 0.000 0.000 0.000 0.000 0.000 Not Reported Not Reported
07/12/2018 07:13 AM 61.52 52.16 44.06 101.48 61.34 52.0 Not Reported 3.13 NW 3.58 NW 4.25 W No 0.000 No Precipitation 05/26/2018 06:15 AM 05/26/2018 06:20 AM 0.000 0.000 0.000 0.000 0.000 Not Reported Not Reported
07/12/2018 07:28 AM 62.96 52.88 44.42 101.48 61.34 50.0 Not Reported 2.68 W 2.68 NW 4.25 W No 0.000 No Precipitation 05/26/2018 06:15 AM 05/26/2018 06:20 AM 0.000 0.000 0.000 0.000 0.000 Not Reported Not Reported
07/12/2018 07:43 AM 62.24 52.70 44.60 101.48 61.34 52.0 Not Reported 2.46 W 3.36 W 6.04 W No 0.000 No Precipitation 05/26/2018 06:15 AM 05/26/2018 06:20 AM 0.000 0.000 0.000 0.000 0.000 Not Reported Not Reported
07/12/2018 07:58 AM 62.78 53.24 45.32 101.48 61.34 52.0 Not Reported 3.58 W 3.13 W 4.47 SW No 0.000 No Precipitation 05/26/2018 06:15 AM 05/26/2018 06:20 AM 0.000 0.000 0.000 0.000 0.000 Not Reported Not Reported
07/12/2018 08:13 AM 62.96 53.78 46.22 101.48 61.34 54.0 Not Reported 3.58 NW 3.13 NW 4.47 NW No 0.000 No Precipitation 05/26/2018 06:15 AM 05/26/2018 06:20 AM 0.000 0.000 0.000 0.000 0.000 Not Reported Not Reported
07/12/2018 08:28 AM 65.12 55.22 47.66 101.48 61.34 53.0 Not Reported 2.24 NW 1.57 W 3.80 NW No 0.000 No Precipitation 05/26/2018 06:15 AM 05/26/2018 06:20 AM 0.000 0.000 0.000 0.000 0.000 Not Reported Not Reported
07/12/2018 08:43 AM 67.46 56.48 47.84 101.48 61.34 49.0 Not Reported 2.91 NW 1.79 W 5.37 W No 0.000 No Precipitation 05/26/2018 06:15 AM 05/26/2018 06:20 AM 0.000 0.000 0.000 0.000 0.000 Not Reported Not Reported
07/12/2018 08:58 AM 68.54 57.56 49.64 101.48 61.34 50.0 Not Reported 1.79 W 1.34 W 3.80 NW No 0.000 No Precipitation 05/26/2018 06:15 AM 05/26/2018 06:20 AM 0.000 0.000 0.000 0.000 0.000 Not Reported Not Reported
07/12/2018 09:13 AM 74.12 59.00 48.20 101.48 61.34 39.0 Not Reported 4.03 W 5.82 SW 6.26 W No 0.000 No Precipitation 05/26/2018 06:15 AM 05/26/2018 06:20 AM 0.000 0.000 0.000 0.000 0.000 Not Reported Not Reported
07/12/2018 09:28 AM 76.46 60.08 48.20 101.48 61.34 36.0 Not Reported 4.25 W 3.80 SW 7.38 W No 0.000 No Precipitation 05/26/2018 06:15 AM 05/26/2018 06:20 AM 0.000 0.000 0.000 0.000 0.000 Not Reported Not Reported
07/12/2018 09:43 AM 79.16 61.88 50.18 101.48 61.34 36.0 Not Reported 2.01 SW 2.24 W 5.14 W No 0.000 No Precipitation 05/26/2018 06:15 AM 05/26/2018 06:20 AM 0.000 0.000 0.000 0.000 0.000 Not Reported Not Reported
07/12/2018 09:58 AM 81.14 62.78 50.72 101.48 61.34 34.0 Not Reported 1.34 NW 0.67 NW 2.68 SW No 0.000 No Precipitation 05/26/2018 06:15 AM 05/26/2018 06:20 AM 0.000 0.000 0.000 0.000 0.000 Not Reported Not Reported
07/12/2018 10:13 AM 83.12 63.86 51.26 101.48 61.34 33.0 Not Reported 1.34 W 2.91 W 3.36 W No 0.000 No Precipitation 05/26/2018 06:15 AM 05/26/2018 06:20 AM 0.000 0.000 0.000 0.000 0.000 Not Reported Not Reported
07/12/2018 10:28 AM 84.92 64.94 52.70 101.48 61.34 32.0 Not Reported 0.22 N 1.12 N 2.91 W No 0.000 No Precipitation 05/26/2018 06:15 AM 05/26/2018 06:20 AM 0.000 0.000 0.000 0.000 0.000 Not Reported Not Reported
07/12/2018 10:43 AM 85.82 64.94 51.62 101.48 61.34 30.0 Not Reported 1.12 SW 0.89 NW 3.58 W No 0.000 No Precipitation 05/26/2018 06:15 AM 05/26/2018 06:20 AM 0.000 0.000 0.000 0.000 0.000 Not Reported Not Reported
07/12/2018 10:58 AM 87.62 65.66 51.98 101.48 61.34 29.0 Not Reported 0.67 N 0.89 N 3.36 SW No 0.000 No Precipitation 05/26/2018 06:15 AM 05/26/2018 06:20 AM 0.000 0.000 0.000 0.000 0.000 Not Reported Not Reported
07/12/2018 11:13 AM 89.78 65.48 50.18 101.48 61.34 25.0 Not Reported 1.79 NW 1.12 W 3.58 NW No 0.000 No Precipitation 05/26/2018 06:15 AM 05/26/2018 06:20 AM 0.000 0.000 0.000 0.000 0.000 Not Reported Not Reported
07/12/2018 11:28 AM 91.22 66.20 50.72 101.48 61.34 25.0 Not Reported 0.00 SW 0.00 W 3.36 NW No 0.000 No Precipitation 05/26/2018 06:15 AM 05/26/2018 06:20 AM 0.000 0.000 0.000 0.000 0.000 Not Reported Not Reported
07/12/2018 11:43 AM 92.66 65.66 47.84 101.48 61.34 21.0 Not Reported 1.79 NW 0.45 W 4.25 SW No 0.000 No Precipitation 05/26/2018 06:15 AM 05/26/2018 06:20 AM 0.000 0.000 0.000 0.000 0.000 Not Reported Not Reported
07/12/2018 11:58 AM 93.56 64.94 44.96 101.48 61.34 18.0 Not Reported 0.67 SW 0.00 NW 3.36 SW No 0.000 No Precipitation 05/26/2018 06:15 AM 05/26/2018 06:20 AM 0.000 0.000 0.000 0.000 0.000 Not Reported Not Reported
07/12/2018 12:13 PM 96.62 66.56 46.94 101.48 61.34 18.0 Not Reported 1.57 SE 1.12 SE 2.68 N No 0.000 No Precipitation 05/26/2018 06:15 AM 05/26/2018 06:20 AM 0.000 0.000 0.000 0.000 0.000 Not Reported Not Reported
07/12/2018 12:28 PM 95.90 66.74 47.84 101.48 61.34 19.0 Not Reported 3.13 SE 1.34 E 2.46 S No 0.000 No Precipitation 05/26/2018 06:15 AM 05/26/2018 06:20 AM 0.000 0.000 0.000 0.000 0.000 Not Reported Not Reported
07/12/2018 12:43 PM 96.26 66.74 47.84 101.48 61.34 19.0 Not Reported 4.92 E 6.26 E 6.49 E No 0.000 No Precipitation 05/26/2018 06:15 AM 05/26/2018 06:20 AM 0.000 0.000 0.000 0.000 0.000 Not Reported Not Reported
07/12/2018 12:58 PM 96.44 66.74 47.48 101.48 61.34 18.0 Not Reported 4.70 E 4.70 E 7.16 E No 0.000 No Precipitation 05/26/2018 06:15 AM 05/26/2018 06:20 AM 0.000 0.000 0.000 0.000 0.000 Not Reported Not Reported
07/12/2018 01:13 PM 97.52 66.38 45.50 101.48 61.34 17.0 Not Reported 6.49 E 6.04 SE 6.26 SE No 0.000 No Precipitation 05/26/2018 06:15 AM 05/26/2018 06:20 AM 0.000 0.000 0.000 0.000 0.000 Not Reported Not Reported
07/12/2018 01:28 PM 97.52 66.56 46.04 101.48 61.34 17.0 Not Reported 5.82 E 6.26 SE 9.40 SE No 0.000 No Precipitation 05/26/2018 06:15 AM 05/26/2018 06:20 AM 0.000 0.000 0.000 0.000 0.000 Not Reported Not Reported
07/12/2018 01:43 PM 97.52 66.74 46.22 101.48 61.34 17.0 Not Reported 6.49 E 7.61 E 9.17 SE No 0.000 No Precipitation 05/26/2018 06:15 AM 05/26/2018 06:20 AM 0.000 0.000 0.000 0.000 0.000 Not Reported Not Reported
07/12/2018 01:58 PM 98.60 67.10 46.76 101.48 61.34 17.0 Not Reported 4.47 SE 4.03 SE 9.17 E No 0.000 No Precipitation 05/26/2018 06:15 AM 05/26/2018 06:20 AM 0.000 0.000 0.000 0.000 0.000 Not Reported Not Reported
07/12/2018 02:13 PM 99.14 65.66 41.72 101.48 61.34 14.0 Not Reported 5.59 E 6.93 E 9.40 E No 0.000 No Precipitation 05/26/2018 06:15 AM 05/26/2018 06:20 AM 0.000 0.000 0.000 0.000 0.000 Not Reported Not Reported
07/12/2018 02:28 PM 99.50 66.56 43.88 101.48 61.34 15.0 Not Reported 4.92 SE 4.25 E 9.17 SE No 0.000 No Precipitation 05/26/2018 06:15 AM 05/26/2018 06:20 AM 0.000 0.000 0.000 0.000 0.000 Not Reported Not Reported
07/12/2018 02:43 PM 101.48 67.82 45.68 101.48 61.34 15.0 Not Reported 4.47 E 2.46 E 8.50 SE No 0.000 No Precipitation 05/26/2018 06:15 AM 05/26/2018 06:20 AM 0.000 0.000 0.000 0.000 0.000 Not Reported Not Reported
07/12/2018 02:58 PM 100.40 66.20 41.72 102.92 61.34 13.0 Not Reported 8.50 E 8.95 E 7.61 E No 0.000 No Precipitation 05/26/2018 06:15 AM 05/26/2018 06:20 AM 0.000 0.000 0.000 0.000 0.000 Not Reported Not Reported
07/12/2018 03:13 PM 101.12 65.30 37.76 102.92 61.34 11.0 Not Reported 9.40 E 9.40 E 11.63 E No 0.000 No Precipitation 05/26/2018 06:15 AM 05/26/2018 06:20 AM 0.000 0.000 0.000 0.000 0.000 Not Reported Not Reported
07/12/2018 03:28 PM 101.66 66.38 41.00 102.92 61.34 12.0 Not Reported 7.38 E 7.16 E 11.63 E No 0.000 No Precipitation 05/26/2018 06:15 AM 05/26/2018 06:20 AM 0.000 0.000 0.000 0.000 0.000 Not Reported Not Reported
07/12/2018 03:43 PM 101.30 66.38 41.54 102.92 61.34 13.0 Not Reported 8.28 SE 5.37 SE 9.62 SE No 0.000 No Precipitation 05/26/2018 06:15 AM 05/26/2018 06:20 AM 0.000 0.000 0.000 0.000 0.000 Not Reported Not Reported
07/12/2018 03:58 PM 102.02 66.20 39.74 102.92 61.34 11.0 Not Reported 5.59 E 8.95 E 10.51 E No 0.000 No Precipitation 05/26/2018 06:15 AM 05/26/2018 06:20 AM 0.000 0.000 0.000 0.000 0.000 Not Reported Not Reported
07/12/2018 04:13 PM 102.38 66.20 39.56 102.92 61.34 11.0 Not Reported 9.62 E 4.47 E 10.74 E No 0.000 No Precipitation 05/26/2018 06:15 AM 05/26/2018 06:20 AM 0.000 0.000 0.000 0.000 0.000 Not Reported Not Reported
07/12/2018 04:28 PM 102.74 64.04 30.20 103.64 61.34 7.0 Not Reported 5.59 SE 4.70 SE 12.97 E No 0.000 No Precipitation 05/26/2018 06:15 AM 05/26/2018 06:20 AM 0.000 0.000 0.000 0.000 0.000 Not Reported Not Reported
07/12/2018 04:43 PM 103.46 64.58 32.00 103.64 61.34 8.0 Not Reported 5.59 S 4.70 E 11.86 E No 0.000 No Precipitation 05/26/2018 06:15 AM 05/26/2018 06:20 AM 0.000 0.000 0.000 0.000 0.000 Not Reported Not Reported
07/12/2018 04:58 PM 102.02 65.30 36.68 103.64 61.34 10.0 Not Reported 3.13 SE 3.13 SE 12.08 E No 0.000 No Precipitation 05/26/2018 06:15 AM 05/26/2018 06:20 AM 0.000 0.000 0.000 0.000 0.000 Not Reported Not Reported
07/12/2018 05:13 PM 102.20 66.38 40.28 103.64 61.34 12.0 Not Reported 7.38 E 5.14 E 10.96 E No 0.000 No Precipitation 05/26/2018 06:15 AM 05/26/2018 06:20 AM 0.000 0.000 0.000 0.000 0.000 Not Reported Not Reported
07/12/2018 05:28 PM 101.84 66.02 39.56 103.64 61.34 11.0 Not Reported 5.82 E 6.26 E 12.53 E No 0.000 No Precipitation 05/26/2018 06:15 AM 05/26/2018 06:20 AM 0.000 0.000 0.000 0.000 0.000 Not Reported Not Reported
07/12/2018 05:43 PM 102.92 66.02 38.30 103.82 61.34 11.0 Not Reported 4.47 SE 9.40 E 8.05 SE No 0.000 No Precipitation 05/26/2018 06:15 AM 05/26/2018 06:20 AM 0.000 0.000 0.000 0.000 0.000 Not Reported Not Reported
07/12/2018 05:58 PM 102.74 65.84 38.30 103.82 61.34 11.0 Not Reported 6.04 E 5.37 SE 9.62 SE No 0.000 No Precipitation 05/26/2018 06:15 AM 05/26/2018 06:20 AM 0.000 0.000 0.000 0.000 0.000 Not Reported Not Reported
07/12/2018 06:13 PM 102.56 65.66 37.76 103.82 61.34 10.0 Not Reported 6.71 E 4.92 E 12.53 E No 0.000 No Precipitation 05/26/2018 06:15 AM 05/26/2018 06:20 AM 0.000 0.000 0.000 0.000 0.000 Not Reported Not Reported
07/12/2018 06:28 PM 102.38 65.30 36.32 103.82 61.34 10.0 Not Reported 7.83 E 7.83 E 11.41 E No 0.000 No Precipitation 05/26/2018 06:15 AM 05/26/2018 06:20 AM 0.000 0.000 0.000 0.000 0.000 Not Reported Not Reported
07/12/2018 06:43 PM 102.74 65.84 37.58 103.82 61.34 10.0 Not Reported 5.14 E 4.92 E 8.72 E No 0.000 No Precipitation 05/26/2018 06:15 AM 05/26/2018 06:20 AM 0.000 0.000 0.000 0.000 0.000 Not Reported Not Reported
07/12/2018 06:58 PM 102.02 65.12 36.14 103.82 61.34 10.0 Not Reported 6.26 E 8.50 E 7.83 E No 0.000 No Precipitation 05/26/2018 06:15 AM 05/26/2018 06:20 AM 0.000 0.000 0.000 0.000 0.000 Not Reported Not Reported
07/12/2018 07:13 PM 101.66 65.48 38.12 103.82 61.34 11.0 Not Reported 3.80 E 4.92 E 7.38 E No 0.000 No Precipitation 05/26/2018 06:15 AM 05/26/2018 06:20 AM 0.000 0.000 0.000 0.000 0.000 Not Reported Not Reported
07/12/2018 07:28 PM 100.94 65.30 38.12 103.82 61.34 11.0 Not Reported 3.36 E 5.82 SE 9.40 E No 0.000 No Precipitation 05/26/2018 06:15 AM 05/26/2018 06:20 AM 0.000 0.000 0.000 0.000 0.000 Not Reported Not Reported
07/12/2018 07:43 PM 99.68 65.30 39.56 103.82 61.34 12.0 Not Reported 2.01 E 4.25 NE 6.04 E No 0.000 No Precipitation 05/26/2018 06:15 AM 05/26/2018 06:20 AM 0.000 0.000 0.000 0.000 0.000 Not Reported Not Reported
07/12/2018 07:58 PM 99.86 65.84 41.72 103.82 61.34 13.0 Not Reported 3.58 NE 2.46 N 5.82 E No 0.000 No Precipitation 05/26/2018 06:15 AM 05/26/2018 06:20 AM 0.000 0.000 0.000 0.000 0.000 Not Reported Not Reported
07/12/2018 08:13 PM 98.78 64.94 39.56 103.82 61.34 13.0 Not Reported 4.70 E 5.37 E 6.71 E No 0.000 No Precipitation 05/26/2018 06:15 AM 05/26/2018 06:20 AM 0.000 0.000 0.000 0.000 0.000 Not Reported Not Reported
07/12/2018 08:28 PM 98.78 65.30 40.64 103.82 61.34 13.0 Not Reported 4.03 SE 2.91 SE 7.16 E No 0.000 No Precipitation 05/26/2018 06:15 AM 05/26/2018 06:20 AM 0.000 0.000 0.000 0.000 0.000 Not Reported Not Reported
07/12/2018 08:43 PM 96.98 65.84 44.24 103.82 61.34 16.0 Not Reported 7.83 SE 5.59 SE 12.53 E No 0.000 No Precipitation 05/26/2018 06:15 AM 05/26/2018 06:20 AM 0.000 0.000 0.000 0.000 0.000 Not Reported Not Reported
07/12/2018 08:58 PM 95.36 65.48 45.14 103.82 61.34 17.0 Not Reported 9.62 E 5.59 NE 9.62 E No 0.000 No Precipitation 05/26/2018 06:15 AM 05/26/2018 06:20 AM 0.000 0.000 0.000 0.000 0.000 Not Reported Not Reported
07/12/2018 09:13 PM 94.28 64.94 44.60 103.82 61.34 18.0 Not Reported 8.95 E 7.16 E 10.07 NE No 0.000 No Precipitation 05/26/2018 06:15 AM 05/26/2018 06:20 AM 0.000 0.000 0.000 0.000 0.000 Not Reported Not Reported
07/12/2018 09:28 PM 93.02 64.76 44.96 103.82 61.34 19.0 Not Reported 5.59 E 7.61 E 10.07 E No 0.000 No Precipitation 05/26/2018 06:15 AM 05/26/2018 06:20 AM 0.000 0.000 0.000 0.000 0.000 Not Reported Not Reported
07/12/2018 09:43 PM 91.40 64.58 46.04 103.82 61.34 20.0 Not Reported 6.49 E 7.38 E 9.17 E No 0.000 No Precipitation 05/26/2018 06:15 AM 05/26/2018 06:20 AM 0.000 0.000 0.000 0.000 0.000 Not Reported Not Reported
07/12/2018 09:58 PM 89.78 63.32 44.42 103.82 61.34 20.0 Not Reported 3.80 E 3.13 E 9.62 E No 0.000 No Precipitation 05/26/2018 06:15 AM 05/26/2018 06:20 AM 0.000 0.000 0.000 0.000 0.000 Not Reported Not Reported
07/12/2018 10:13 PM 88.52 62.96 44.42 103.82 61.34 21.0 Not Reported 2.91 E 3.13 E 4.25 NE No 0.000 No Precipitation 05/26/2018 06:15 AM 05/26/2018 06:20 AM 0.000 0.000 0.000 0.000 0.000 Not Reported Not Reported
07/12/2018 10:28 PM 87.80 62.96 45.14 103.82 61.34 22.0 Not Reported 2.91 E 1.79 E 4.70 E No 0.000 No Precipitation 05/26/2018 06:15 AM 05/26/2018 06:20 AM 0.000 0.000 0.000 0.000 0.000 Not Reported Not Reported
07/12/2018 10:43 PM 87.08 63.14 46.22 103.82 61.34 24.0 Not Reported 1.12 SE 0.45 SE 5.37 E No 0.000 No Precipitation 05/26/2018 06:15 AM 05/26/2018 06:20 AM 0.000 0.000 0.000 0.000 0.000 Not Reported Not Reported
07/12/2018 10:58 PM 83.66 63.50 50.36 103.82 61.34 31.0 Not Reported 2.46 W 1.79 W 2.91 S No 0.000 No Precipitation 05/26/2018 06:15 AM 05/26/2018 06:20 AM 0.000 0.000 0.000 0.000 0.000 Not Reported Not Reported
07/12/2018 11:13 PM 81.14 62.60 50.36 103.82 61.34 34.0 Not Reported 2.01 W 2.68 W 2.68 W No 0.000 No Precipitation 05/26/2018 06:15 AM 05/26/2018 06:20 AM 0.000 0.000 0.000 0.000 0.000 Not Reported Not Reported
07/12/2018 11:28 PM 79.70 62.24 50.54 103.82 61.34 36.0 Not Reported 0.45 S 0.89 SW 2.68 SW No 0.000 No Precipitation 05/26/2018 06:15 AM 05/26/2018 06:20 AM 0.000 0.000 0.000 0.000 0.000 Not Reported Not Reported
07/12/2018 11:43 PM 78.62 61.52 49.82 103.82 61.34 36.0 Not Reported 2.24 W 1.34 W 3.36 W No 0.000 No Precipitation 05/26/2018 06:15 AM 05/26/2018 06:20 AM 0.000 0.000 0.000 0.000 0.000 Not Reported Not Reported
07/12/2018 11:58 PM 77.72 61.16 49.64 103.82 61.34 37.0 Not Reported 1.79 NW 2.68 NW 3.80 W No 0.000 No Precipitation 05/26/2018 06:15 AM 05/26/2018 06:20 AM 0.000 0.000 0.000 0.000 0.000 Not Reported Not Reported